sensor_id;sensor_type;location;lat;lon;timestamp;pressure;altitude;pressure_sealevel;temperature;humidity
10097;BME280;5087;42.662;23.466;2022-11-02T00:01:11;96063.66;;;7.37;100.00
10097;BME280;5087;42.662;23.466;2022-11-02T00:03:40;96062.06;;;7.25;100.00
10097;BME280;5087;42.662;23.466;2022-11-02T00:06:07;96051.34;;;7.15;100.00
10097;BME280;5087;42.662;23.466;2022-11-02T00:08:34;96047.56;;;7.16;100.00
10097;BME280;5087;42.662;23.466;2022-11-02T00:11:01;96040.50;;;7.20;100.00
10097;BME280;5087;42.662;23.466;2022-11-02T00:13:28;96040.78;;;7.19;100.00
10097;BME280;5087;42.662;23.466;2022-11-02T00:15:56;96060.69;;;7.28;100.00
10097;BME280;5087;42.662;23.466;2022-11-02T00:18:25;96052.94;;;7.21;100.00
10097;BME280;5087;42.662;23.466;2022-11-02T00:20:52;96063.69;;;7.26;100.00
10097;BME280;5087;42.662;23.466;2022-11-02T00:23:19;96065.84;;;7.24;100.00
10097;BME280;5087;42.662;23.466;2022-11-02T00:25:48;96057.25;;;7.22;100.00
10097;BME280;5087;42.662;23.466;2022-11-02T00:28:15;96053.72;;;7.27;100.00
10097;BME280;5087;42.662;23.466;2022-11-02T00:30:43;96054.22;;;7.29;100.00
10097;BME280;5087;42.662;23.466;2022-11-02T00:33:10;96059.63;;;7.29;100.00
10097;BME280;5087;42.662;23.466;2022-11-02T00:35:39;96019.56;;;6.96;100.00
10097;BME280;5087;42.662;23.466;2022-11-02T00:38:09;96063.84;;;7.01;100.00
10097;BME280;5087;42.662;23.466;2022-11-02T00:40:36;96052.28;;;6.85;100.00
10097;BME280;5087;42.662;23.466;2022-11-02T00:43:05;96056.34;;;6.82;100.00
10097;BME280;5087;42.662;23.466;2022-11-02T00:45:33;96055.53;;;6.76;100.00
10097;BME280;5087;42.662;23.466;2022-11-02T00:48:01;96045.63;;;6.61;100.00
10097;BME280;5087;42.662;23.466;2022-11-02T00:50:28;96054.28;;;6.53;100.00
10097;BME280;5087;42.662;23.466;2022-11-02T00:52:58;96054.00;;;6.44;100.00
10097;BME280;5087;42.662;23.466;2022-11-02T00:55:25;96059.72;;;6.27;100.00
10097;BME280;5087;42.662;23.466;2022-11-02T00:57:57;96039.78;;;6.08;100.00
10097;BME280;5087;42.662;23.466;2022-11-02T01:00:24;96055.94;;;5.97;100.00
10097;BME280;5087;42.662;23.466;2022-11-02T01:02:51;96055.91;;;5.87;100.00
10097;BME280;5087;42.662;23.466;2022-11-02T01:05:19;96044.59;;;5.80;100.00
10097;BME280;5087;42.662;23.466;2022-11-02T01:07:46;96048.41;;;5.84;100.00
10097;BME280;5087;42.662;23.466;2022-11-02T01:10:15;96044.09;;;5.78;100.00
10097;BME280;5087;42.662;23.466;2022-11-02T01:12:44;96051.63;;;5.70;100.00
10097;BME280;5087;42.662;23.466;2022-11-02T01:15:11;96036.00;;;5.67;100.00
10097;BME280;5087;42.662;23.466;2022-11-02T01:17:38;96040.03;;;5.70;100.00
10097;BME280;5087;42.662;23.466;2022-11-02T01:20:06;96054.31;;;5.70;100.00
10097;BME280;5087;42.662;23.466;2022-11-02T01:22:34;96041.66;;;5.66;100.00
10097;BME280;5087;42.662;23.466;2022-11-02T01:25:01;96047.84;;;5.61;100.00
10097;BME280;5087;42.662;23.466;2022-11-02T01:27:30;96054.06;;;5.67;100.00
10097;BME280;5087;42.662;23.466;2022-11-02T01:29:57;96048.66;;;5.62;100.00
10097;BME280;5087;42.662;23.466;2022-11-02T01:32:25;96049.47;;;5.67;100.00
10097;BME280;5087;42.662;23.466;2022-11-02T01:34:54;96054.84;;;5.62;100.00
10097;BME280;5087;42.662;23.466;2022-11-02T01:37:22;96048.38;;;5.58;100.00
10097;BME280;5087;42.662;23.466;2022-11-02T01:39:49;96020.59;;;5.37;100.00
10097;BME280;5087;42.662;23.466;2022-11-02T01:42:18;96048.66;;;5.62;100.00
10097;BME280;5087;42.662;23.466;2022-11-02T01:44:48;96046.50;;;5.64;100.00
10097;BME280;5087;42.662;23.466;2022-11-02T01:47:19;96014.72;;;5.50;100.00
10097;BME280;5087;42.662;23.466;2022-11-02T01:49:54;96046.22;;;5.55;100.00
10097;BME280;5087;42.662;23.466;2022-11-02T01:52:25;96049.19;;;5.59;100.00
10097;BME280;5087;42.662;23.466;2022-11-02T01:54:57;96047.03;;;5.50;100.00
10097;BME280;5087;42.662;23.466;2022-11-02T01:57:27;96050.50;;;5.56;100.00
10097;BME280;5087;42.662;23.466;2022-11-02T02:00:02;96045.13;;;5.56;100.00
10097;BME280;5087;42.662;23.466;2022-11-02T02:02:43;96048.09;;;5.54;100.00
10097;BME280;5087;42.662;23.466;2022-11-02T02:05:13;96050.00;;;5.54;100.00
10097;BME280;5087;42.662;23.466;2022-11-02T02:07:42;96050.25;;;5.52;100.00
10097;BME280;5087;42.662;23.466;2022-11-02T02:10:11;96049.97;;;5.49;100.00
10097;BME280;5087;42.662;23.466;2022-11-02T02:12:40;96051.31;;;5.36;100.00
10097;BME280;5087;42.662;23.466;2022-11-02T02:15:10;96038.91;;;5.25;100.00
10097;BME280;5087;42.662;23.466;2022-11-02T02:17:42;96049.16;;;5.28;100.00
10097;BME280;5087;42.662;23.466;2022-11-02T02:20:19;96038.63;;;5.21;100.00
10097;BME280;5087;42.662;23.466;2022-11-02T02:28:47;96034.03;;;5.21;100.00
10097;BME280;5087;42.662;23.466;2022-11-02T02:31:24;96042.94;;;5.17;100.00
10097;BME280;5087;42.662;23.466;2022-11-02T02:33:58;96028.88;;;5.10;100.00
10097;BME280;5087;42.662;23.466;2022-11-02T02:36:31;96031.84;;;5.08;100.00
10097;BME280;5087;42.662;23.466;2022-11-02T02:39:03;96039.41;;;5.11;100.00
10097;BME280;5087;42.662;23.466;2022-11-02T02:41:36;96029.44;;;5.01;100.00
10097;BME280;5087;42.662;23.466;2022-11-02T02:44:08;96038.56;;;5.00;100.00
10097;BME280;5087;42.662;23.466;2022-11-02T02:46:42;96034.50;;;4.87;100.00
10097;BME280;5087;42.662;23.466;2022-11-02T02:49:16;96042.50;;;4.77;100.00
10097;BME280;5087;42.662;23.466;2022-11-02T02:51:45;96038.69;;;4.68;100.00
10097;BME280;5087;42.662;23.466;2022-11-02T02:54:18;96043.78;;;4.54;100.00
10097;BME280;5087;42.662;23.466;2022-11-02T02:56:50;96054.44;;;4.38;100.00
10097;BME280;5087;42.662;23.466;2022-11-02T02:59:23;96037.94;;;4.19;100.00
10097;BME280;5087;42.662;23.466;2022-11-02T03:01:55;96045.47;;;4.22;100.00
10097;BME280;5087;42.662;23.466;2022-11-02T03:04:23;96042.47;;;4.14;100.00
10097;BME280;5087;42.662;23.466;2022-11-02T03:06:52;96048.03;;;4.07;100.00
10097;BME280;5087;42.662;23.466;2022-11-02T03:09:26;96041.84;;;4.01;100.00
10097;BME280;5087;42.662;23.466;2022-11-02T03:12:11;96045.03;;;3.98;100.00
10097;BME280;5087;42.662;23.466;2022-11-02T03:14:59;96049.81;;;3.91;100.00
10097;BME280;5087;42.662;23.466;2022-11-02T03:17:33;96054.09;;;3.87;100.00
10097;BME280;5087;42.662;23.466;2022-11-02T03:20:08;96059.97;;;3.84;100.00
10097;BME280;5087;42.662;23.466;2022-11-02T03:22:48;96044.31;;;3.70;100.00
10097;BME280;5087;42.662;23.466;2022-11-02T03:25:22;96055.63;;;3.77;100.00
10097;BME280;5087;42.662;23.466;2022-11-02T03:27:55;96059.19;;;3.83;100.00
10097;BME280;5087;42.662;23.466;2022-11-02T03:30:29;96059.72;;;3.85;100.00
10097;BME280;5087;42.662;23.466;2022-11-02T03:33:05;96056.28;;;3.95;100.00
10097;BME280;5087;42.662;23.466;2022-11-02T03:35:36;96051.94;;;3.89;100.00
10097;BME280;5087;42.662;23.466;2022-11-02T03:38:09;96055.78;;;3.98;100.00
10097;BME280;5087;42.662;23.466;2022-11-02T03:40:42;96055.00;;;3.98;100.00
10097;BME280;5087;42.662;23.466;2022-11-02T03:43:12;96038.19;;;3.80;100.00
10097;BME280;5087;42.662;23.466;2022-11-02T03:45:45;96059.59;;;4.02;100.00
10097;BME280;5087;42.662;23.466;2022-11-02T03:48:14;96056.38;;;4.05;100.00
10097;BME280;5087;42.662;23.466;2022-11-02T03:50:47;96057.44;;;4.04;100.00
10097;BME280;5087;42.662;23.466;2022-11-02T03:53:21;96054.75;;;4.04;100.00
10097;BME280;5087;42.662;23.466;2022-11-02T03:56:01;96036.69;;;3.94;100.00
10097;BME280;5087;42.662;23.466;2022-11-02T03:58:30;96052.63;;;4.06;100.00
10097;BME280;5087;42.662;23.466;2022-11-02T04:01:02;96059.09;;;4.10;100.00
10097;BME280;5087;42.662;23.466;2022-11-02T04:03:36;96045.41;;;4.12;100.00
10097;BME280;5087;42.662;23.466;2022-11-02T04:06:05;96046.22;;;4.12;100.00
10097;BME280;5087;42.662;23.466;2022-11-02T04:08:36;96053.47;;;4.12;100.00
10097;BME280;5087;42.662;23.466;2022-11-02T04:11:08;96049.66;;;4.08;100.00
10097;BME280;5087;42.662;23.466;2022-11-02T04:13:57;96048.88;;;4.07;100.00
10097;BME280;5087;42.662;23.466;2022-11-02T04:16:45;96041.88;;;4.06;100.00
10097;BME280;5087;42.662;23.466;2022-11-02T04:19:18;96043.50;;;4.07;100.00
10097;BME280;5087;42.662;23.466;2022-11-02T04:22:00;96038.91;;;4.08;100.00
10097;BME280;5087;42.662;23.466;2022-11-02T04:24:48;96044.53;;;4.01;100.00
10097;BME280;5087;42.662;23.466;2022-11-02T04:27:34;96047.16;;;3.96;100.00
10097;BME280;5087;42.662;23.466;2022-11-02T04:30:03;96035.34;;;3.92;100.00
10097;BME280;5087;42.662;23.466;2022-11-02T04:32:37;96040.69;;;3.92;100.00
10097;BME280;5087;42.662;23.466;2022-11-02T04:35:23;96044.19;;;3.92;100.00
10097;BME280;5087;42.662;23.466;2022-11-02T04:37:51;96043.88;;;3.84;100.00
10097;BME280;5087;42.662;23.466;2022-11-02T04:40:38;96032.53;;;3.76;100.00
10097;BME280;5087;42.662;23.466;2022-11-02T04:43:05;96047.16;;;3.96;100.00
10097;BME280;5087;42.662;23.466;2022-11-02T04:45:34;96033.50;;;3.98;100.00
10097;BME280;5087;42.662;23.466;2022-11-02T04:48:05;96045.63;;;4.05;100.00
10097;BME280;5087;42.662;23.466;2022-11-02T04:50:33;96047.84;;;4.19;100.00
10097;BME280;5087;42.662;23.466;2022-11-02T04:53:02;96029.19;;;4.39;100.00
10097;BME280;5087;42.662;23.466;2022-11-02T04:55:32;96057.63;;;4.30;100.00
10097;BME280;5087;42.662;23.466;2022-11-02T04:57:59;96051.94;;;4.21;100.00
10097;BME280;5087;42.662;23.466;2022-11-02T05:00:26;96063.44;;;4.17;100.00
10097;BME280;5087;42.662;23.466;2022-11-02T05:02:53;96055.78;;;4.41;100.00
10097;BME280;5087;42.662;23.466;2022-11-02T05:05:24;96056.19;;;4.17;100.00
10097;BME280;5087;42.662;23.466;2022-11-02T05:07:55;96052.16;;;4.20;100.00
10097;BME280;5087;42.662;23.466;2022-11-02T05:10:26;96039.75;;;4.08;100.00
10097;BME280;5087;42.662;23.466;2022-11-02T05:12:56;96070.75;;;4.21;100.00
10097;BME280;5087;42.662;23.466;2022-11-02T05:15:25;96065.88;;;4.18;100.00
10097;BME280;5087;42.662;23.466;2022-11-02T05:17:53;96049.97;;;4.11;100.00
10097;BME280;5087;42.662;23.466;2022-11-02T05:20:26;96061.38;;;4.29;100.00
10097;BME280;5087;42.662;23.466;2022-11-02T05:22:53;96060.88;;;4.32;100.00
10097;BME280;5087;42.662;23.466;2022-11-02T05:25:23;96065.47;;;4.42;100.00
10097;BME280;5087;42.662;23.466;2022-11-02T05:27:50;96052.31;;;4.40;100.00
10097;BME280;5087;42.662;23.466;2022-11-02T05:30:18;96074.56;;;4.79;100.00
10097;BME280;5087;42.662;23.466;2022-11-02T05:32:47;96070.81;;;4.95;100.00
10097;BME280;5087;42.662;23.466;2022-11-02T05:35:14;96070.34;;;5.09;100.00
10097;BME280;5087;42.662;23.466;2022-11-02T05:37:44;96066.59;;;5.15;100.00
10097;BME280;5087;42.662;23.466;2022-11-02T05:40:12;96061.19;;;5.04;100.00
10097;BME280;5087;42.662;23.466;2022-11-02T05:42:39;96090.50;;;5.06;100.00
10097;BME280;5087;42.662;23.466;2022-11-02T05:45:08;96088.88;;;4.95;100.00
10097;BME280;5087;42.662;23.466;2022-11-02T05:47:37;96092.91;;;5.02;100.00
10097;BME280;5087;42.662;23.466;2022-11-02T05:50:04;96099.41;;;5.01;100.00
10097;BME280;5087;42.662;23.466;2022-11-02T05:52:33;96088.50;;;4.75;100.00
10097;BME280;5087;42.662;23.466;2022-11-02T05:55:03;96104.06;;;4.63;100.00
10097;BME280;5087;42.662;23.466;2022-11-02T05:57:30;96083.97;;;4.33;100.00
10097;BME280;5087;42.662;23.466;2022-11-02T05:59:57;96111.34;;;4.25;100.00
10097;BME280;5087;42.662;23.466;2022-11-02T06:02:25;96118.59;;;4.24;100.00
10097;BME280;5087;42.662;23.466;2022-11-02T06:04:52;96121.53;;;4.23;100.00
10097;BME280;5087;42.662;23.466;2022-11-02T06:07:19;96108.94;;;4.28;100.00
10097;BME280;5087;42.662;23.466;2022-11-02T06:09:46;96113.28;;;4.83;100.00
10097;BME280;5087;42.662;23.466;2022-11-02T06:12:15;96103.09;;;4.90;100.00
10097;BME280;5087;42.662;23.466;2022-11-02T06:14:42;96116.19;;;5.29;100.00
10097;BME280;5087;42.662;23.466;2022-11-02T06:17:09;96117.28;;;5.38;100.00
10097;BME280;5087;42.662;23.466;2022-11-02T06:19:36;96118.44;;;5.79;100.00
10097;BME280;5087;42.662;23.466;2022-11-02T06:22:04;96105.50;;;5.76;100.00
10097;BME280;5087;42.662;23.466;2022-11-02T06:24:31;96124.97;;;6.09;100.00
10097;BME280;5087;42.662;23.466;2022-11-02T06:27:01;96119.03;;;6.38;100.00
10097;BME280;5087;42.662;23.466;2022-11-02T06:29:30;96122.75;;;6.78;100.00
10097;BME280;5087;42.662;23.466;2022-11-02T06:31:57;96129.19;;;6.82;100.00
10097;BME280;5087;42.662;23.466;2022-11-02T06:34:24;96119.94;;;7.14;100.00
10097;BME280;5087;42.662;23.466;2022-11-02T06:36:52;96113.88;;;7.33;100.00
10097;BME280;5087;42.662;23.466;2022-11-02T06:39:19;96106.19;;;7.60;100.00
10097;BME280;5087;42.662;23.466;2022-11-02T06:41:47;96120.66;;;7.80;100.00
10097;BME280;5087;42.662;23.466;2022-11-02T06:44:14;96117.22;;;7.69;100.00
10097;BME280;5087;42.662;23.466;2022-11-02T06:46:42;96118.66;;;7.51;100.00
10097;BME280;5087;42.662;23.466;2022-11-02T06:49:10;96113.47;;;7.65;100.00
10097;BME280;5087;42.662;23.466;2022-11-02T06:51:38;96111.41;;;7.86;100.00
10097;BME280;5087;42.662;23.466;2022-11-02T06:54:05;96101.88;;;7.59;100.00
10097;BME280;5087;42.662;23.466;2022-11-02T06:56:33;96104.69;;;7.84;100.00
10097;BME280;5087;42.662;23.466;2022-11-02T06:59:00;96089.34;;;7.74;100.00
10097;BME280;5087;42.662;23.466;2022-11-02T07:01:27;96110.44;;;7.72;100.00
10097;BME280;5087;42.662;23.466;2022-11-02T07:03:56;96101.34;;;8.32;100.00
10097;BME280;5087;42.662;23.466;2022-11-02T07:06:23;96096.38;;;8.44;100.00
10097;BME280;5087;42.662;23.466;2022-11-02T07:08:50;96099.13;;;8.39;100.00
10097;BME280;5087;42.662;23.466;2022-11-02T07:11:17;96102.81;;;8.53;100.00
10097;BME280;5087;42.662;23.466;2022-11-02T07:13:45;96095.06;;;8.95;100.00
10097;BME280;5087;42.662;23.466;2022-11-02T07:16:12;96084.91;;;9.06;100.00
10097;BME280;5087;42.662;23.466;2022-11-02T07:18:40;96086.56;;;9.02;100.00
10097;BME280;5087;42.662;23.466;2022-11-02T07:21:09;96093.34;;;9.48;100.00
10097;BME280;5087;42.662;23.466;2022-11-02T07:23:36;96081.69;;;9.66;100.00
10097;BME280;5087;42.662;23.466;2022-11-02T07:26:04;96079.44;;;10.07;100.00
10097;BME280;5087;42.662;23.466;2022-11-02T07:28:31;96088.56;;;10.63;100.00
10097;BME280;5087;42.662;23.466;2022-11-02T07:30:58;96084.97;;;10.68;100.00
10097;BME280;5087;42.662;23.466;2022-11-02T07:33:25;96093.31;;;10.71;100.00
10097;BME280;5087;42.662;23.466;2022-11-02T07:35:53;96080.16;;;10.65;100.00
10097;BME280;5087;42.662;23.466;2022-11-02T07:38:25;96075.13;;;10.86;100.00
10097;BME280;5087;42.662;23.466;2022-11-02T07:40:52;96075.13;;;11.14;100.00
10097;BME280;5087;42.662;23.466;2022-11-02T07:43:19;96077.94;;;11.36;100.00
10097;BME280;5087;42.662;23.466;2022-11-02T07:45:53;96074.97;;;11.61;100.00
10097;BME280;5087;42.662;23.466;2022-11-02T07:48:21;96048.72;;;11.79;100.00
10097;BME280;5087;42.662;23.466;2022-11-02T07:50:50;96054.16;;;11.79;100.00
10097;BME280;5087;42.662;23.466;2022-11-02T07:53:18;96065.22;;;11.82;100.00
10097;BME280;5087;42.662;23.466;2022-11-02T07:55:46;96050.56;;;11.92;100.00
10097;BME280;5087;42.662;23.466;2022-11-02T07:58:14;96064.09;;;11.83;100.00
10097;BME280;5087;42.662;23.466;2022-11-02T08:00:41;96015.31;;;11.87;100.00
10097;BME280;5087;42.662;23.466;2022-11-02T08:03:10;96055.75;;;12.48;100.00
10097;BME280;5087;42.662;23.466;2022-11-02T08:05:39;96056.09;;;12.46;100.00
10097;BME280;5087;42.662;23.466;2022-11-02T08:08:10;96050.06;;;12.98;100.00
10097;BME280;5087;42.662;23.466;2022-11-02T08:10:38;96048.31;;;12.62;100.00
10097;BME280;5087;42.662;23.466;2022-11-02T08:13:07;96047.88;;;12.69;100.00
10097;BME280;5087;42.662;23.466;2022-11-02T08:15:34;96043.19;;;13.10;100.00
10097;BME280;5087;42.662;23.466;2022-11-02T08:18:03;96030.47;;;13.54;100.00
10097;BME280;5087;42.662;23.466;2022-11-02T08:20:31;96023.31;;;14.50;100.00
10097;BME280;5087;42.662;23.466;2022-11-02T08:23:00;96027.31;;;15.30;100.00
10097;BME280;5087;42.662;23.466;2022-11-02T08:25:27;96029.63;;;15.28;100.00
10097;BME280;5087;42.662;23.466;2022-11-02T08:27:55;96025.91;;;14.94;100.00
10097;BME280;5087;42.662;23.466;2022-11-02T08:30:26;96025.22;;;15.06;100.00
10097;BME280;5087;42.662;23.466;2022-11-02T08:32:53;96014.03;;;15.71;100.00
10097;BME280;5087;42.662;23.466;2022-11-02T08:35:21;96021.69;;;15.77;100.00
10097;BME280;5087;42.662;23.466;2022-11-02T08:37:53;96022.09;;;15.46;100.00
10097;BME280;5087;42.662;23.466;2022-11-02T08:40:20;96012.69;;;15.77;100.00
10097;BME280;5087;42.662;23.466;2022-11-02T08:42:54;96008.56;;;16.84;98.24
10097;BME280;5087;42.662;23.466;2022-11-02T08:45:28;95997.91;;;16.57;95.87
10097;BME280;5087;42.662;23.466;2022-11-02T08:47:56;95998.06;;;16.98;94.76
10097;BME280;5087;42.662;23.466;2022-11-02T08:50:24;95998.03;;;17.48;91.34
10097;BME280;5087;42.662;23.466;2022-11-02T08:52:51;95988.34;;;17.38;88.35
10097;BME280;5087;42.662;23.466;2022-11-02T08:55:19;95988.56;;;17.33;87.46
10097;BME280;5087;42.662;23.466;2022-11-02T08:57:47;95987.56;;;16.88;89.51
10097;BME280;5087;42.662;23.466;2022-11-02T09:00:15;95990.19;;;17.09;92.12
10097;BME280;5087;42.662;23.466;2022-11-02T09:02:57;95987.47;;;18.31;84.89
10097;BME280;5087;42.662;23.466;2022-11-02T09:05:24;95976.47;;;18.47;81.17
10097;BME280;5087;42.662;23.466;2022-11-02T09:07:54;95978.44;;;18.63;81.01
10097;BME280;5087;42.662;23.466;2022-11-02T09:10:21;95980.41;;;19.10;78.57
10097;BME280;5087;42.662;23.466;2022-11-02T09:12:49;95981.38;;;19.18;75.96
10097;BME280;5087;42.662;23.466;2022-11-02T09:15:16;95936.63;;;19.21;75.54
10097;BME280;5087;42.662;23.466;2022-11-02T09:17:47;95976.91;;;19.29;75.04
10097;BME280;5087;42.662;23.466;2022-11-02T09:20:15;95966.47;;;18.55;77.45
10097;BME280;5087;42.662;23.466;2022-11-02T09:22:43;95969.03;;;19.12;76.33
10097;BME280;5087;42.662;23.466;2022-11-02T09:25:11;95952.81;;;18.43;77.80
10097;BME280;5087;42.662;23.466;2022-11-02T09:27:39;95958.31;;;18.91;75.84
10097;BME280;5087;42.662;23.466;2022-11-02T09:30:08;95957.88;;;18.73;75.50
10097;BME280;5087;42.662;23.466;2022-11-02T09:32:35;95953.09;;;19.02;74.66
10097;BME280;5087;42.662;23.466;2022-11-02T09:35:07;95949.44;;;18.33;75.32
10097;BME280;5087;42.662;23.466;2022-11-02T09:37:35;95946.78;;;18.85;74.72
10097;BME280;5087;42.662;23.466;2022-11-02T09:40:02;95937.34;;;18.22;76.38
10097;BME280;5087;42.662;23.466;2022-11-02T09:42:34;95934.53;;;18.82;75.97
10097;BME280;5087;42.662;23.466;2022-11-02T09:45:07;95929.88;;;19.93;71.83
10097;BME280;5087;42.662;23.466;2022-11-02T09:47:42;95923.91;;;20.11;70.71
10097;BME280;5087;42.662;23.466;2022-11-02T09:50:17;95922.47;;;20.64;68.82
10097;BME280;5087;42.662;23.466;2022-11-02T09:52:49;95914.06;;;20.80;67.06
10097;BME280;5087;42.662;23.466;2022-11-02T09:55:21;95909.13;;;20.93;66.04
10097;BME280;5087;42.662;23.466;2022-11-02T09:57:56;95909.97;;;20.97;65.16
10097;BME280;5087;42.662;23.466;2022-11-02T10:00:29;95900.81;;;21.46;65.29
10097;BME280;5087;42.662;23.466;2022-11-02T10:03:01;95901.91;;;20.84;65.96
10097;BME280;5087;42.662;23.466;2022-11-02T10:05:40;95879.88;;;21.45;63.92
10097;BME280;5087;42.662;23.466;2022-11-02T10:08:18;95891.22;;;21.67;63.41
10097;BME280;5087;42.662;23.466;2022-11-02T10:10:52;95872.22;;;21.62;62.43
10097;BME280;5087;42.662;23.466;2022-11-02T10:13:30;95870.47;;;21.50;62.83
10097;BME280;5087;42.662;23.466;2022-11-02T10:16:04;95870.50;;;21.54;61.86
10097;BME280;5087;42.662;23.466;2022-11-02T10:18:34;95870.06;;;22.65;60.30
10097;BME280;5087;42.662;23.466;2022-11-02T10:21:08;95868.16;;;23.35;58.73
10097;BME280;5087;42.662;23.466;2022-11-02T10:23:39;95846.63;;;22.48;59.22
10097;BME280;5087;42.662;23.466;2022-11-02T10:26:12;95848.53;;;21.00;61.95
10097;BME280;5087;42.662;23.466;2022-11-02T10:28:42;95858.88;;;21.07;62.64
10097;BME280;5087;42.662;23.466;2022-11-02T10:31:20;95866.25;;;20.72;63.29
10097;BME280;5087;42.662;23.466;2022-11-02T10:33:49;95844.50;;;20.94;63.65
10097;BME280;5087;42.662;23.466;2022-11-02T10:36:27;95833.38;;;20.86;63.37
10097;BME280;5087;42.662;23.466;2022-11-02T10:39:05;95845.09;;;21.41;62.84
10097;BME280;5087;42.662;23.466;2022-11-02T10:41:45;95842.06;;;22.25;61.93
10097;BME280;5087;42.662;23.466;2022-11-02T10:44:26;95829.78;;;22.22;60.15
10097;BME280;5087;42.662;23.466;2022-11-02T10:47:05;95838.16;;;22.82;59.45
10097;BME280;5087;42.662;23.466;2022-11-02T10:52:41;95830.66;;;22.82;58.71
10097;BME280;5087;42.662;23.466;2022-11-02T10:55:17;95818.66;;;23.23;57.08
10097;BME280;5087;42.662;23.466;2022-11-02T10:57:47;95818.94;;;23.11;57.86
10097;BME280;5087;42.662;23.466;2022-11-02T11:00:27;95812.34;;;23.33;55.86
10097;BME280;5087;42.662;23.466;2022-11-02T11:03:06;95814.94;;;22.97;56.07
10097;BME280;5087;42.662;23.466;2022-11-02T11:05:35;95799.41;;;23.74;55.92
10097;BME280;5087;42.662;23.466;2022-11-02T11:08:05;95802.63;;;23.90;53.86
10097;BME280;5087;42.662;23.466;2022-11-02T11:10:36;95803.38;;;22.84;55.51
10097;BME280;5087;42.662;23.466;2022-11-02T11:13:04;95795.00;;;23.51;54.43
10097;BME280;5087;42.662;23.466;2022-11-02T11:15:33;95786.03;;;24.23;53.75
10097;BME280;5087;42.662;23.466;2022-11-02T11:18:10;95796.19;;;23.50;52.20
10097;BME280;5087;42.662;23.466;2022-11-02T11:20:40;95783.19;;;23.72;52.21
10097;BME280;5087;42.662;23.466;2022-11-02T11:23:19;95770.97;;;24.06;52.15
10097;BME280;5087;42.662;23.466;2022-11-02T11:25:54;95768.59;;;23.93;52.25
10097;BME280;5087;42.662;23.466;2022-11-02T11:28:23;95763.84;;;24.44;51.08
10097;BME280;5087;42.662;23.466;2022-11-02T11:31:05;95762.66;;;24.13;51.13
10097;BME280;5087;42.662;23.466;2022-11-02T11:33:41;95747.19;;;24.26;50.91
10097;BME280;5087;42.662;23.466;2022-11-02T11:36:10;95752.38;;;24.31;49.07
10097;BME280;5087;42.662;23.466;2022-11-02T11:38:52;95750.38;;;24.25;48.87
10097;BME280;5087;42.662;23.466;2022-11-02T11:41:20;95751.16;;;24.14;49.04
10097;BME280;5087;42.662;23.466;2022-11-02T11:43:50;95745.63;;;24.36;49.00
10097;BME280;5087;42.662;23.466;2022-11-02T11:46:18;95748.38;;;24.69;48.26
10097;BME280;5087;42.662;23.466;2022-11-02T11:48:48;95731.31;;;24.67;48.50
10097;BME280;5087;42.662;23.466;2022-11-02T11:51:28;95731.91;;;25.21;47.40
10097;BME280;5087;42.662;23.466;2022-11-02T11:54:26;95723.91;;;25.38;46.32
10097;BME280;5087;42.662;23.466;2022-11-02T11:56:55;95723.78;;;24.63;47.73
10097;BME280;5087;42.662;23.466;2022-11-02T11:59:28;95713.06;;;24.58;47.60
10097;BME280;5087;42.662;23.466;2022-11-02T12:01:58;95712.09;;;25.16;46.50
10097;BME280;5087;42.662;23.466;2022-11-02T12:04:30;95697.75;;;25.28;45.86
10097;BME280;5087;42.662;23.466;2022-11-02T12:07:40;95703.78;;;25.79;44.63
10097;BME280;5087;42.662;23.466;2022-11-02T12:10:18;95697.34;;;25.93;43.12
10097;BME280;5087;42.662;23.466;2022-11-02T12:13:04;95698.94;;;25.90;43.58
10097;BME280;5087;42.662;23.466;2022-11-02T12:15:46;95690.97;;;25.40;41.33
10097;BME280;5087;42.662;23.466;2022-11-02T12:18:32;95676.97;;;25.54;38.95
10097;BME280;5087;42.662;23.466;2022-11-02T12:24:13;95685.88;;;25.20;37.79
10097;BME280;5087;42.662;23.466;2022-11-02T12:26:57;95682.91;;;25.56;37.77
10097;BME280;5087;42.662;23.466;2022-11-02T12:29:45;95667.16;;;25.32;36.74
10097;BME280;5087;42.662;23.466;2022-11-02T12:32:32;95677.22;;;25.07;37.34
10097;BME280;5087;42.662;23.466;2022-11-02T12:35:14;95673.53;;;25.28;37.45
10097;BME280;5087;42.662;23.466;2022-11-02T12:37:57;95670.41;;;25.19;37.37
10097;BME280;5087;42.662;23.466;2022-11-02T12:40:45;95661.72;;;25.10;37.19
10097;BME280;5087;42.662;23.466;2022-11-02T12:43:30;95661.31;;;25.15;37.16
10097;BME280;5087;42.662;23.466;2022-11-02T12:46:09;95668.59;;;24.80;37.62
10097;BME280;5087;42.662;23.466;2022-11-02T12:48:48;95666.66;;;24.66;37.80
10097;BME280;5087;42.662;23.466;2022-11-02T12:51:25;95654.34;;;24.78;37.86
10097;BME280;5087;42.662;23.466;2022-11-02T12:53:56;95662.97;;;25.02;38.09
10097;BME280;5087;42.662;23.466;2022-11-02T12:56:27;95654.47;;;25.31;38.04
10097;BME280;5087;42.662;23.466;2022-11-02T12:58:59;95663.28;;;25.15;38.34
10097;BME280;5087;42.662;23.466;2022-11-02T13:01:29;95645.91;;;25.03;38.94
10097;BME280;5087;42.662;23.466;2022-11-02T13:04:03;95646.22;;;25.16;38.32
10097;BME280;5087;42.662;23.466;2022-11-02T13:06:38;95620.59;;;24.83;38.43
10097;BME280;5087;42.662;23.466;2022-11-02T13:09:11;95652.72;;;24.88;38.47
10097;BME280;5087;42.662;23.466;2022-11-02T13:11:42;95629.00;;;24.69;38.50
10097;BME280;5087;42.662;23.466;2022-11-02T13:14:16;95644.47;;;24.62;39.07
10097;BME280;5087;42.662;23.466;2022-11-02T13:16:47;95634.16;;;24.70;38.55
10097;BME280;5087;42.662;23.466;2022-11-02T13:19:19;95640.09;;;24.72;38.26
10097;BME280;5087;42.662;23.466;2022-11-02T13:21:50;95650.00;;;24.73;38.13
10097;BME280;5087;42.662;23.466;2022-11-02T13:24:26;95645.69;;;24.54;38.22
10097;BME280;5087;42.662;23.466;2022-11-02T13:26:54;95637.75;;;24.67;38.51
10097;BME280;5087;42.662;23.466;2022-11-02T13:29:32;95635.34;;;24.69;38.49
10097;BME280;5087;42.662;23.466;2022-11-02T13:32:07;95640.03;;;24.83;38.41
10097;BME280;5087;42.662;23.466;2022-11-02T13:34:39;95642.06;;;24.72;38.08